sensor_id;sensor_type;location;lat;lon;timestamp;temperature;humidity
78297;DHT22;67555;47.660;19.622;2024-02-23T00:02:16;11.90;53.40
78297;DHT22;67555;47.660;19.622;2024-02-23T00:04:42;11.90;53.40
78297;DHT22;67555;47.660;19.622;2024-02-23T00:07:08;11.90;53.30
78297;DHT22;67555;47.660;19.622;2024-02-23T00:09:34;11.90;53.20
78297;DHT22;67555;47.660;19.622;2024-02-23T00:11:59;11.90;53.20
78297;DHT22;67555;47.660;19.622;2024-02-23T00:14:25;11.90;53.30
78297;DHT22;67555;47.660;19.622;2024-02-23T00:16:51;11.90;53.20
78297;DHT22;67555;47.660;19.622;2024-02-23T00:19:16;11.90;53.20
78297;DHT22;67555;47.660;19.622;2024-02-23T00:21:44;11.90;53.20
78297;DHT22;67555;47.660;19.622;2024-02-23T00:24:15;11.90;53.10
78297;DHT22;67555;47.660;19.622;2024-02-23T00:26:42;11.90;53.10
78297;DHT22;67555;47.660;19.622;2024-02-23T00:29:07;11.90;53.00
78297;DHT22;67555;47.660;19.622;2024-02-23T00:31:34;11.90;53.10
78297;DHT22;67555;47.660;19.622;2024-02-23T00:34:01;11.90;53.00
78297;DHT22;67555;47.660;19.622;2024-02-23T00:36:27;11.90;53.00
78297;DHT22;67555;47.660;19.622;2024-02-23T00:38:52;11.90;52.90
78297;DHT22;67555;47.660;19.622;2024-02-23T00:41:18;11.90;53.00
78297;DHT22;67555;47.660;19.622;2024-02-23T00:43:44;11.90;52.90
78297;DHT22;67555;47.660;19.622;2024-02-23T00:46:09;11.90;52.90
78297;DHT22;67555;47.660;19.622;2024-02-23T00:48:35;11.90;52.90
78297;DHT22;67555;47.660;19.622;2024-02-23T00:51:02;11.90;52.90
78297;DHT22;67555;47.660;19.622;2024-02-23T00:53:30;11.90;52.90
78297;DHT22;67555;47.660;19.622;2024-02-23T00:55:55;11.90;52.80
78297;DHT22;67555;47.660;19.622;2024-02-23T00:58:21;11.90;52.70
78297;DHT22;67555;47.660;19.622;2024-02-23T01:00:47;11.90;52.80
78297;DHT22;67555;47.660;19.622;2024-02-23T01:03:12;11.90;52.90
78297;DHT22;67555;47.660;19.622;2024-02-23T01:05:38;11.90;52.80
78297;DHT22;67555;47.660;19.622;2024-02-23T01:08:05;11.90;52.80
78297;DHT22;67555;47.660;19.622;2024-02-23T01:10:31;11.90;52.70
78297;DHT22;67555;47.660;19.622;2024-02-23T01:12:56;11.90;52.70
78297;DHT22;67555;47.660;19.622;2024-02-23T01:15:23;11.90;52.80
78297;DHT22;67555;47.660;19.622;2024-02-23T01:17:48;11.90;52.80
78297;DHT22;67555;47.660;19.622;2024-02-23T01:20:14;11.90;52.80
78297;DHT22;67555;47.660;19.622;2024-02-23T01:22:40;11.90;52.90
78297;DHT22;67555;47.660;19.622;2024-02-23T01:25:06;11.90;53.00
78297;DHT22;67555;47.660;19.622;2024-02-23T01:27:31;11.90;53.20
78297;DHT22;67555;47.660;19.622;2024-02-23T01:29:57;11.90;53.40
78297;DHT22;67555;47.660;19.622;2024-02-23T01:32:23;11.80;53.60
78297;DHT22;67555;47.660;19.622;2024-02-23T01:34:48;11.80;53.70
78297;DHT22;67555;47.660;19.622;2024-02-23T01:37:14;11.70;53.90
78297;DHT22;67555;47.660;19.622;2024-02-23T01:39:40;11.70;54.10
78297;DHT22;67555;47.660;19.622;2024-02-23T01:42:05;11.70;54.20
78297;DHT22;67555;47.660;19.622;2024-02-23T01:44:31;11.70;54.60
78297;DHT22;67555;47.660;19.622;2024-02-23T01:46:57;11.60;54.80
78297;DHT22;67555;47.660;19.622;2024-02-23T01:49:23;11.50;55.10
78297;DHT22;67555;47.660;19.622;2024-02-23T01:51:56;11.50;55.30
78297;DHT22;67555;47.660;19.622;2024-02-23T01:54:22;11.50;55.70
78297;DHT22;67555;47.660;19.622;2024-02-23T01:56:48;11.50;55.90
78297;DHT22;67555;47.660;19.622;2024-02-23T01:59:14;11.40;56.10
78297;DHT22;67555;47.660;19.622;2024-02-23T02:01:43;11.40;56.50
78297;DHT22;67555;47.660;19.622;2024-02-23T02:04:09;11.30;56.70
78297;DHT22;67555;47.660;19.622;2024-02-23T02:06:35;11.30;57.00
78297;DHT22;67555;47.660;19.622;2024-02-23T02:09:01;11.30;57.30
78297;DHT22;67555;47.660;19.622;2024-02-23T02:11:27;11.10;57.50
78297;DHT22;67555;47.660;19.622;2024-02-23T02:13:53;11.10;57.90
78297;DHT22;67555;47.660;19.622;2024-02-23T02:16:18;11.10;58.20
78297;DHT22;67555;47.660;19.622;2024-02-23T02:18:44;11.10;58.50
78297;DHT22;67555;47.660;19.622;2024-02-23T02:21:11;11.10;58.60
78297;DHT22;67555;47.660;19.622;2024-02-23T02:23:37;11.10;58.70
78297;DHT22;67555;47.660;19.622;2024-02-23T02:26:03;11.10;58.90
78297;DHT22;67555;47.660;19.622;2024-02-23T02:28:29;11.10;58.90
78297;DHT22;67555;47.660;19.622;2024-02-23T02:30:55;11.10;59.00
78297;DHT22;67555;47.660;19.622;2024-02-23T02:33:22;11.10;59.00
78297;DHT22;67555;47.660;19.622;2024-02-23T02:35:48;11.10;59.00
78297;DHT22;67555;47.660;19.622;2024-02-23T02:38:15;11.10;59.20
78297;DHT22;67555;47.660;19.622;2024-02-23T02:40:41;11.10;59.20
78297;DHT22;67555;47.660;19.622;2024-02-23T02:43:07;11.10;59.20
78297;DHT22;67555;47.660;19.622;2024-02-23T02:45:33;11.10;59.20
78297;DHT22;67555;47.660;19.622;2024-02-23T02:48:03;11.10;59.30
78297;DHT22;67555;47.660;19.622;2024-02-23T02:50:29;11.10;59.30
78297;DHT22;67555;47.660;19.622;2024-02-23T02:52:54;11.10;59.40
78297;DHT22;67555;47.660;19.622;2024-02-23T02:55:20;11.10;59.40
78297;DHT22;67555;47.660;19.622;2024-02-23T02:57:46;11.10;59.50
78297;DHT22;67555;47.660;19.622;2024-02-23T03:00:12;11.10;59.50
78297;DHT22;67555;47.660;19.622;2024-02-23T03:02:38;11.10;59.60
78297;DHT22;67555;47.660;19.622;2024-02-23T03:05:04;11.10;59.70
78297;DHT22;67555;47.660;19.622;2024-02-23T03:07:30;11.10;59.70
78297;DHT22;67555;47.660;19.622;2024-02-23T03:09:56;11.10;59.80
78297;DHT22;67555;47.660;19.622;2024-02-23T03:12:21;11.10;60.00
78297;DHT22;67555;47.660;19.622;2024-02-23T03:14:47;11.10;60.00
78297;DHT22;67555;47.660;19.622;2024-02-23T03:17:13;11.10;60.00
78297;DHT22;67555;47.660;19.622;2024-02-23T03:19:39;11.10;60.10
78297;DHT22;67555;47.660;19.622;2024-02-23T03:22:05;11.10;60.30
78297;DHT22;67555;47.660;19.622;2024-02-23T03:24:30;11.10;60.50
78297;DHT22;67555;47.660;19.622;2024-02-23T03:26:56;11.10;60.70
78297;DHT22;67555;47.660;19.622;2024-02-23T03:29:22;11.10;60.90
78297;DHT22;67555;47.660;19.622;2024-02-23T03:31:56;11.10;61.10
78297;DHT22;67555;47.660;19.622;2024-02-23T03:34:21;11.10;61.40
78297;DHT22;67555;47.660;19.622;2024-02-23T03:36:47;11.10;61.60
78297;DHT22;67555;47.660;19.622;2024-02-23T03:39:13;11.00;61.80
78297;DHT22;67555;47.660;19.622;2024-02-23T03:41:39;11.00;62.10
78297;DHT22;67555;47.660;19.622;2024-02-23T03:44:05;11.00;62.30
78297;DHT22;67555;47.660;19.622;2024-02-23T03:46:30;10.90;62.70
78297;DHT22;67555;47.660;19.622;2024-02-23T03:48:56;10.90;63.00
78297;DHT22;67555;47.660;19.622;2024-02-23T03:51:23;10.90;63.20
78297;DHT22;67555;47.660;19.622;2024-02-23T03:53:49;10.90;63.40
78297;DHT22;67555;47.660;19.622;2024-02-23T03:56:15;10.90;63.60
78297;DHT22;67555;47.660;19.622;2024-02-23T03:58:41;10.80;63.90
78297;DHT22;67555;47.660;19.622;2024-02-23T04:01:06;10.80;64.10
78297;DHT22;67555;47.660;19.622;2024-02-23T04:03:32;10.80;64.30
78297;DHT22;67555;47.660;19.622;2024-02-23T04:05:58;10.80;64.50
78297;DHT22;67555;47.660;19.622;2024-02-23T04:08:23;10.80;64.60
78297;DHT22;67555;47.660;19.622;2024-02-23T04:10:49;10.70;64.80
78297;DHT22;67555;47.660;19.622;2024-02-23T04:13:15;10.70;65.00
78297;DHT22;67555;47.660;19.622;2024-02-23T04:15:40;10.70;65.10
78297;DHT22;67555;47.660;19.622;2024-02-23T04:18:06;10.70;65.20
78297;DHT22;67555;47.660;19.622;2024-02-23T04:20:32;10.70;65.20
78297;DHT22;67555;47.660;19.622;2024-02-23T04:22:58;10.70;65.40
78297;DHT22;67555;47.660;19.622;2024-02-23T04:25:24;10.70;65.40
78297;DHT22;67555;47.660;19.622;2024-02-23T04:27:50;10.70;65.60
78297;DHT22;67555;47.660;19.622;2024-02-23T04:30:16;10.70;65.60
78297;DHT22;67555;47.660;19.622;2024-02-23T04:32:41;10.70;65.80
78297;DHT22;67555;47.660;19.622;2024-02-23T04:35:08;10.70;65.80
78297;DHT22;67555;47.660;19.622;2024-02-23T04:37:33;10.70;65.90
78297;DHT22;67555;47.660;19.622;2024-02-23T04:39:59;10.70;65.90
78297;DHT22;67555;47.660;19.622;2024-02-23T04:42:25;10.70;65.90
78297;DHT22;67555;47.660;19.622;2024-02-23T04:44:51;10.80;66.00
78297;DHT22;67555;47.660;19.622;2024-02-23T04:47:19;10.80;65.90
78297;DHT22;67555;47.660;19.622;2024-02-23T04:49:45;10.80;65.90
78297;DHT22;67555;47.660;19.622;2024-02-23T04:52:11;10.90;65.90
78297;DHT22;67555;47.660;19.622;2024-02-23T04:54:37;10.80;66.00
78297;DHT22;67555;47.660;19.622;2024-02-23T04:57:02;10.80;66.10
78297;DHT22;67555;47.660;19.622;2024-02-23T04:59:28;10.80;66.20
78297;DHT22;67555;47.660;19.622;2024-02-23T05:01:55;10.80;66.30
78297;DHT22;67555;47.660;19.622;2024-02-23T05:04:21;10.80;66.40
78297;DHT22;67555;47.660;19.622;2024-02-23T05:06:47;10.80;66.60
78297;DHT22;67555;47.660;19.622;2024-02-23T05:09:13;10.80;66.70
78297;DHT22;67555;47.660;19.622;2024-02-23T05:11:39;10.70;66.90
78297;DHT22;67555;47.660;19.622;2024-02-23T05:14:04;10.70;67.10
78297;DHT22;67555;47.660;19.622;2024-02-23T05:16:31;10.70;67.20
78297;DHT22;67555;47.660;19.622;2024-02-23T05:18:57;10.70;67.50
78297;DHT22;67555;47.660;19.622;2024-02-23T05:21:22;10.70;67.50
78297;DHT22;67555;47.660;19.622;2024-02-23T05:23:48;10.60;67.70
78297;DHT22;67555;47.660;19.622;2024-02-23T05:26:14;10.60;67.90
78297;DHT22;67555;47.660;19.622;2024-02-23T05:28:39;10.60;68.00
78297;DHT22;67555;47.660;19.622;2024-02-23T05:31:05;10.60;68.20
78297;DHT22;67555;47.660;19.622;2024-02-23T05:33:31;10.60;68.30
78297;DHT22;67555;47.660;19.622;2024-02-23T05:35:57;10.60;68.40
78297;DHT22;67555;47.660;19.622;2024-02-23T05:38:23;10.60;68.50
78297;DHT22;67555;47.660;19.622;2024-02-23T05:40:48;10.60;68.60
78297;DHT22;67555;47.660;19.622;2024-02-23T05:43:14;10.60;68.70
78297;DHT22;67555;47.660;19.622;2024-02-23T05:45:40;10.60;68.80
78297;DHT22;67555;47.660;19.622;2024-02-23T05:48:06;10.60;68.90
78297;DHT22;67555;47.660;19.622;2024-02-23T05:50:32;10.60;69.00
78297;DHT22;67555;47.660;19.622;2024-02-23T05:52:58;10.60;69.10
78297;DHT22;67555;47.660;19.622;2024-02-23T05:55:24;10.60;69.10
78297;DHT22;67555;47.660;19.622;2024-02-23T05:57:49;10.70;69.10
78297;DHT22;67555;47.660;19.622;2024-02-23T06:00:18;10.60;69.20
78297;DHT22;67555;47.660;19.622;2024-02-23T06:02:47;10.60;69.30
78297;DHT22;67555;47.660;19.622;2024-02-23T06:05:13;10.70;69.30
78297;DHT22;67555;47.660;19.622;2024-02-23T06:07:38;10.70;69.20
78297;DHT22;67555;47.660;19.622;2024-02-23T06:10:05;10.80;69.00
78297;DHT22;67555;47.660;19.622;2024-02-23T06:12:31;10.80;69.00
78297;DHT22;67555;47.660;19.622;2024-02-23T06:14:57;10.90;68.90
78297;DHT22;67555;47.660;19.622;2024-02-23T06:17:24;10.90;68.80
78297;DHT22;67555;47.660;19.622;2024-02-23T06:19:50;10.90;68.90
78297;DHT22;67555;47.660;19.622;2024-02-23T06:22:18;10.90;68.90
78297;DHT22;67555;47.660;19.622;2024-02-23T06:24:47;10.90;69.00
78297;DHT22;67555;47.660;19.622;2024-02-23T06:27:12;10.90;69.10
78297;DHT22;67555;47.660;19.622;2024-02-23T06:29:38;10.90;69.20
78297;DHT22;67555;47.660;19.622;2024-02-23T06:32:04;10.90;69.30
78297;DHT22;67555;47.660;19.622;2024-02-23T06:34:30;10.90;69.30
78297;DHT22;67555;47.660;19.622;2024-02-23T06:36:55;10.90;69.40
78297;DHT22;67555;47.660;19.622;2024-02-23T06:39:21;10.90;69.40
78297;DHT22;67555;47.660;19.622;2024-02-23T06:41:47;10.90;69.50
78297;DHT22;67555;47.660;19.622;2024-02-23T06:44:13;11.00;69.50
78297;DHT22;67555;47.660;19.622;2024-02-23T06:46:38;11.00;69.40
78297;DHT22;67555;47.660;19.622;2024-02-23T06:49:04;11.10;69.40
78297;DHT22;67555;47.660;19.622;2024-02-23T06:51:31;11.10;69.40
78297;DHT22;67555;47.660;19.622;2024-02-23T06:53:57;11.10;69.50
78297;DHT22;67555;47.660;19.622;2024-02-23T06:56:23;11.10;69.50
78297;DHT22;67555;47.660;19.622;2024-02-23T06:58:48;11.10;69.70
78297;DHT22;67555;47.660;19.622;2024-02-23T07:01:14;11.10;69.70
78297;DHT22;67555;47.660;19.622;2024-02-23T07:03:40;11.10;69.80
78297;DHT22;67555;47.660;19.622;2024-02-23T07:06:08;11.10;69.90
78297;DHT22;67555;47.660;19.622;2024-02-23T07:08:35;11.20;69.90
78297;DHT22;67555;47.660;19.622;2024-02-23T07:11:01;11.20;70.00
78297;DHT22;67555;47.660;19.622;2024-02-23T07:13:27;11.30;70.10
78297;DHT22;67555;47.660;19.622;2024-02-23T07:15:53;11.30;70.10
78297;DHT22;67555;47.660;19.622;2024-02-23T07:18:19;11.40;70.10
78297;DHT22;67555;47.660;19.622;2024-02-23T07:20:44;11.40;70.10
78297;DHT22;67555;47.660;19.622;2024-02-23T07:23:10;11.40;70.10
78297;DHT22;67555;47.660;19.622;2024-02-23T07:25:36;11.50;70.20
78297;DHT22;67555;47.660;19.622;2024-02-23T07:28:01;11.50;70.20
78297;DHT22;67555;47.660;19.622;2024-02-23T07:30:27;11.50;70.20
78297;DHT22;67555;47.660;19.622;2024-02-23T07:32:53;11.60;70.10
78297;DHT22;67555;47.660;19.622;2024-02-23T07:35:19;11.70;70.10
78297;DHT22;67555;47.660;19.622;2024-02-23T07:37:45;11.70;70.10
78297;DHT22;67555;47.660;19.622;2024-02-23T07:40:11;11.80;70.00
78297;DHT22;67555;47.660;19.622;2024-02-23T07:42:38;11.90;70.00
78297;DHT22;67555;47.660;19.622;2024-02-23T07:45:04;11.80;70.10
78297;DHT22;67555;47.660;19.622;2024-02-23T07:47:31;11.80;70.20
78297;DHT22;67555;47.660;19.622;2024-02-23T07:49:57;11.90;70.20
78297;DHT22;67555;47.660;19.622;2024-02-23T07:52:23;11.90;70.10
78297;DHT22;67555;47.660;19.622;2024-02-23T07:54:50;12.00;70.00
78297;DHT22;67555;47.660;19.622;2024-02-23T07:57:18;12.00;70.00
78297;DHT22;67555;47.660;19.622;2024-02-23T07:59:44;12.10;69.90
78297;DHT22;67555;47.660;19.622;2024-02-23T08:02:09;12.20;69.90
78297;DHT22;67555;47.660;19.622;2024-02-23T08:04:35;12.20;69.80
78297;DHT22;67555;47.660;19.622;2024-02-23T08:07:01;12.20;69.80
78297;DHT22;67555;47.660;19.622;2024-02-23T08:09:27;12.20;69.80
78297;DHT22;67555;47.660;19.622;2024-02-23T08:11:52;12.20;69.70
78297;DHT22;67555;47.660;19.622;2024-02-23T08:14:18;12.30;69.70
78297;DHT22;67555;47.660;19.622;2024-02-23T08:16:44;12.20;69.70
78297;DHT22;67555;47.660;19.622;2024-02-23T08:19:09;12.20;69.70
78297;DHT22;67555;47.660;19.622;2024-02-23T08:21:35;12.10;69.80
78297;DHT22;67555;47.660;19.622;2024-02-23T08:24:01;12.10;69.80
78297;DHT22;67555;47.660;19.622;2024-02-23T08:26:28;12.10;69.70
78297;DHT22;67555;47.660;19.622;2024-02-23T08:28:53;12.10;69.80
78297;DHT22;67555;47.660;19.622;2024-02-23T08:31:20;12.00;69.80
78297;DHT22;67555;47.660;19.622;2024-02-23T08:33:47;12.00;69.90
78297;DHT22;67555;47.660;19.622;2024-02-23T08:36:12;12.00;69.90
78297;DHT22;67555;47.660;19.622;2024-02-23T08:38:38;12.00;70.00
78297;DHT22;67555;47.660;19.622;2024-02-23T08:41:04;11.90;70.00
78297;DHT22;67555;47.660;19.622;2024-02-23T08:43:29;12.00;70.00
78297;DHT22;67555;47.660;19.622;2024-02-23T08:45:55;12.00;69.90
78297;DHT22;67555;47.660;19.622;2024-02-23T08:48:21;12.10;69.80
78297;DHT22;67555;47.660;19.622;2024-02-23T08:50:46;12.10;69.80
78297;DHT22;67555;47.660;19.622;2024-02-23T08:53:12;12.10;69.60
78297;DHT22;67555;47.660;19.622;2024-02-23T08:55:38;12.10;69.50
78297;DHT22;67555;47.660;19.622;2024-02-23T08:58:04;12.20;69.50
78297;DHT22;67555;47.660;19.622;2024-02-23T09:00:31;12.20;69.40
78297;DHT22;67555;47.660;19.622;2024-02-23T09:02:57;12.20;69.50
78297;DHT22;67555;47.660;19.622;2024-02-23T09:05:23;12.30;69.30
78297;DHT22;67555;47.660;19.622;2024-02-23T09:07:48;12.30;69.20
78297;DHT22;67555;47.660;19.622;2024-02-23T09:10:14;12.30;69.20
78297;DHT22;67555;47.660;19.622;2024-02-23T09:12:40;12.30;69.20
78297;DHT22;67555;47.660;19.622;2024-02-23T09:15:06;12.20;69.10
78297;DHT22;67555;47.660;19.622;2024-02-23T09:17:32;12.20;69.20
78297;DHT22;67555;47.660;19.622;2024-02-23T09:19:57;12.10;69.30
78297;DHT22;67555;47.660;19.622;2024-02-23T09:22:23;12.10;69.30
78297;DHT22;67555;47.660;19.622;2024-02-23T09:24:49;12.10;69.50
78297;DHT22;67555;47.660;19.622;2024-02-23T09:27:15;12.10;69.60
78297;DHT22;67555;47.660;19.622;2024-02-23T09:29:41;12.20;69.50
78297;DHT22;67555;47.660;19.622;2024-02-23T09:32:09;12.20;69.50
78297;DHT22;67555;47.660;19.622;2024-02-23T09:34:35;12.30;69.30
78297;DHT22;67555;47.660;19.622;2024-02-23T09:37:00;12.30;69.20
78297;DHT22;67555;47.660;19.622;2024-02-23T09:39:26;12.30;69.20
78297;DHT22;67555;47.660;19.622;2024-02-23T09:41:56;12.30;69.00
78297;DHT22;67555;47.660;19.622;2024-02-23T09:44:22;12.30;69.00
78297;DHT22;67555;47.660;19.622;2024-02-23T09:46:49;12.30;69.00
78297;DHT22;67555;47.660;19.622;2024-02-23T09:49:18;12.20;69.00
78297;DHT22;67555;47.660;19.622;2024-02-23T09:51:44;12.20;69.10
78297;DHT22;67555;47.660;19.622;2024-02-23T09:54:10;12.20;69.10
78297;DHT22;67555;47.660;19.622;2024-02-23T09:56:36;12.20;69.00
78297;DHT22;67555;47.660;19.622;2024-02-23T09:59:03;12.10;68.90
78297;DHT22;67555;47.660;19.622;2024-02-23T10:01:31;12.10;69.00
78297;DHT22;67555;47.660;19.622;2024-02-23T10:03:59;12.10;68.90
78297;DHT22;67555;47.660;19.622;2024-02-23T10:06:25;12.10;69.00
78297;DHT22;67555;47.660;19.622;2024-02-23T10:08:51;12.10;69.00
78297;DHT22;67555;47.660;19.622;2024-02-23T10:11:23;12.10;69.00
78297;DHT22;67555;47.660;19.622;2024-02-23T10:13:49;12.20;69.00
78297;DHT22;67555;47.660;19.622;2024-02-23T10:16:16;12.20;69.00
78297;DHT22;67555;47.660;19.622;2024-02-23T10:18:42;12.30;68.90
78297;DHT22;67555;47.660;19.622;2024-02-23T10:21:08;12.30;68.80
78297;DHT22;67555;47.660;19.622;2024-02-23T10:23:34;12.40;68.80
78297;DHT22;67555;47.660;19.622;2024-02-23T10:26:00;12.50;68.50
78297;DHT22;67555;47.660;19.622;2024-02-23T10:28:25;12.50;68.30
78297;DHT22;67555;47.660;19.622;2024-02-23T10:30:53;12.50;68.20
78297;DHT22;67555;47.660;19.622;2024-02-23T10:33:22;12.70;68.00
78297;DHT22;67555;47.660;19.622;2024-02-23T10:35:53;12.90;67.70
78297;DHT22;67555;47.660;19.622;2024-02-23T10:38:21;13.00;67.20
78297;DHT22;67555;47.660;19.622;2024-02-23T10:40:49;13.10;67.00
78297;DHT22;67555;47.660;19.622;2024-02-23T10:43:19;13.10;66.90
78297;DHT22;67555;47.660;19.622;2024-02-23T10:45:46;13.10;66.80
78297;DHT22;67555;47.660;19.622;2024-02-23T10:48:13;13.20;66.70
78297;DHT22;67555;47.660;19.622;2024-02-23T10:50:40;13.20;66.50
78297;DHT22;67555;47.660;19.622;2024-02-23T10:53:10;13.20;66.50
78297;DHT22;67555;47.660;19.622;2024-02-23T10:55:37;13.30;66.50
78297;DHT22;67555;47.660;19.622;2024-02-23T10:58:06;13.30;66.40
78297;DHT22;67555;47.660;19.622;2024-02-23T11:00:33;13.20;66.50
78297;DHT22;67555;47.660;19.622;2024-02-23T11:02:59;13.10;66.70
78297;DHT22;67555;47.660;19.622;2024-02-23T11:05:25;13.00;67.00
78297;DHT22;67555;47.660;19.622;2024-02-23T11:07:56;13.00;67.20
78297;DHT22;67555;47.660;19.622;2024-02-23T11:10:22;12.90;67.50
78297;DHT22;67555;47.660;19.622;2024-02-23T11:13:00;12.90;67.70
78297;DHT22;67555;47.660;19.622;2024-02-23T11:15:30;12.90;67.80
78297;DHT22;67555;47.660;19.622;2024-02-23T11:17:57;12.90;67.90
78297;DHT22;67555;47.660;19.622;2024-02-23T11:20:23;13.00;67.80
78297;DHT22;67555;47.660;19.622;2024-02-23T11:22:53;13.00;67.80
78297;DHT22;67555;47.660;19.622;2024-02-23T11:25:20;13.10;67.60
78297;DHT22;67555;47.660;19.622;2024-02-23T11:27:49;13.10;67.40
78297;DHT22;67555;47.660;19.622;2024-02-23T11:30:17;13.20;67.20
78297;DHT22;67555;47.660;19.622;2024-02-23T11:32:45;13.20;67.10
78297;DHT22;67555;47.660;19.622;2024-02-23T11:35:16;13.20;67.10
78297;DHT22;67555;47.660;19.622;2024-02-23T11:37:56;13.10;67.10
78297;DHT22;67555;47.660;19.622;2024-02-23T11:40:30;13.10;67.00
78297;DHT22;67555;47.660;19.622;2024-02-23T11:42:57;13.20;67.00
78297;DHT22;67555;47.660;19.622;2024-02-23T11:45:24;13.30;66.90
78297;DHT22;67555;47.660;19.622;2024-02-23T11:47:50;13.30;66.80
78297;DHT22;67555;47.660;19.622;2024-02-23T11:50:16;13.20;66.90
78297;DHT22;67555;47.660;19.622;2024-02-23T11:52:45;13.30;66.70
78297;DHT22;67555;47.660;19.622;2024-02-23T11:55:11;13.30;66.70
78297;DHT22;67555;47.660;19.622;2024-02-23T11:57:38;13.20;66.70
78297;DHT22;67555;47.660;19.622;2024-02-23T12:00:07;13.30;66.60
78297;DHT22;67555;47.660;19.622;2024-02-23T12:02:35;13.30;66.70
78297;DHT22;67555;47.660;19.622;2024-02-23T12:05:01;13.30;66.70
78297;DHT22;67555;47.660;19.622;2024-02-23T12:07:29;13.30;66.60
78297;DHT22;67555;47.660;19.622;2024-02-23T12:09:58;13.40;66.50
78297;DHT22;67555;47.660;19.622;2024-02-23T12:12:25;13.50;66.50
78297;DHT22;67555;47.660;19.622;2024-02-23T12:14:51;13.50;66.30
78297;DHT22;67555;47.660;19.622;2024-02-23T12:17:17;13.60;66.20
78297;DHT22;67555;47.660;19.622;2024-02-23T12:19:43;13.70;66.00
78297;DHT22;67555;47.660;19.622;2024-02-23T12:22:12;13.80;65.80
78297;DHT22;67555;47.660;19.622;2024-02-23T12:24:41;13.90;65.70
78297;DHT22;67555;47.660;19.622;2024-02-23T12:27:07;13.90;65.60
78297;DHT22;67555;47.660;19.622;2024-02-23T12:29:32;14.00;65.50
78297;DHT22;67555;47.660;19.622;2024-02-23T12:32:05;14.10;65.30
78297;DHT22;67555;47.660;19.622;2024-02-23T12:34:32;14.10;65.20
78297;DHT22;67555;47.660;19.622;2024-02-23T12:36:58;14.20;65.10
78297;DHT22;67555;47.660;19.622;2024-02-23T12:39:24;14.30;64.90
78297;DHT22;67555;47.660;19.622;2024-02-23T12:41:49;14.30;64.80
78297;DHT22;67555;47.660;19.622;2024-02-23T12:44:16;14.30;64.70
78297;DHT22;67555;47.660;19.622;2024-02-23T12:46:42;14.40;64.60
78297;DHT22;67555;47.660;19.622;2024-02-23T12:49:07;14.40;64.60
78297;DHT22;67555;47.660;19.622;2024-02-23T12:51:33;14.40;64.50
78297;DHT22;67555;47.660;19.622;2024-02-23T12:54:00;14.40;64.50
78297;DHT22;67555;47.660;19.622;2024-02-23T12:56:25;14.40;64.40
78297;DHT22;67555;47.660;19.622;2024-02-23T12:58:52;14.40;64.30
78297;DHT22;67555;47.660;19.622;2024-02-23T13:01:19;14.50;64.30
78297;DHT22;67555;47.660;19.622;2024-02-23T13:03:45;14.50;64.10
78297;DHT22;67555;47.660;19.622;2024-02-23T13:06:11;14.50;64.10
78297;DHT22;67555;47.660;19.622;2024-02-23T13:08:38;14.50;64.10
78297;DHT22;67555;47.660;19.622;2024-02-23T13:11:06;14.50;64.00
78297;DHT22;67555;47.660;19.622;2024-02-23T13:13:32;14.40;64.00
78297;DHT22;67555;47.660;19.622;2024-02-23T13:15:58;14.30;64.10
78297;DHT22;67555;47.660;19.622;2024-02-23T13:18:24;14.30;64.10
78297;DHT22;67555;47.660;19.622;2024-02-23T13:20:50;14.20;64.10
78297;DHT22;67555;47.660;19.622;2024-02-23T13:23:16;14.10;64.20
78297;DHT22;67555;47.660;19.622;2024-02-23T13:25:42;14.10;64.40
78297;DHT22;67555;47.660;19.622;2024-02-23T13:28:09;14.00;64.50
78297;DHT22;67555;47.660;19.622;2024-02-23T13:30:35;13.90;64.60
78297;DHT22;67555;47.660;19.622;2024-02-23T13:33:02;13.90;64.70
78297;DHT22;67555;47.660;19.622;2024-02-23T13:35:28;13.90;64.80
78297;DHT22;67555;47.660;19.622;2024-02-23T13:37:54;13.80;64.90
78297;DHT22;67555;47.660;19.622;2024-02-23T13:40:20;13.80;65.00
78297;DHT22;67555;47.660;19.622;2024-02-23T13:42:46;13.70;65.00
78297;DHT22;67555;47.660;19.622;2024-02-23T13:45:15;13.70;65.00
78297;DHT22;67555;47.660;19.622;2024-02-23T13:47:41;13.70;65.10
78297;DHT22;67555;47.660;19.622;2024-02-23T13:50:07;13.70;65.10
78297;DHT22;67555;47.660;19.622;2024-02-23T13:52:33;13.70;65.20
78297;DHT22;67555;47.660;19.622;2024-02-23T13:55:00;13.70;65.10
78297;DHT22;67555;47.660;19.622;2024-02-23T13:57:26;13.70;65.10
78297;DHT22;67555;47.660;19.622;2024-02-23T13:59:51;13.70;65.00
78297;DHT22;67555;47.660;19.622;2024-02-23T14:02:24;13.70;65.00
78297;DHT22;67555;47.660;19.622;2024-02-23T14:04:51;13.70;65.10
78297;DHT22;67555;47.660;19.622;2024-02-23T14:07:16;13.70;65.10
78297;DHT22;67555;47.660;19.622;2024-02-23T14:09:43;13.70;65.20
78297;DHT22;67555;47.660;19.622;2024-02-23T14:12:09;13.60;65.30
78297;DHT22;67555;47.660;19.622;2024-02-23T14:14:34;13.60;65.40
78297;DHT22;67555;47.660;19.622;2024-02-23T14:17:00;13.50;65.60
78297;DHT22;67555;47.660;19.622;2024-02-23T14:19:26;13.50;65.70
78297;DHT22;67555;47.660;19.622;2024-02-23T14:21:52;13.50;65.70
78297;DHT22;67555;47.660;19.622;2024-02-23T14:24:18;13.50;65.80
78297;DHT22;67555;47.660;19.622;2024-02-23T14:26:43;13.50;65.80
78297;DHT22;67555;47.660;19.622;2024-02-23T14:29:09;13.50;65.80
78297;DHT22;67555;47.660;19.622;2024-02-23T14:31:35;13.50;65.90
78297;DHT22;67555;47.660;19.622;2024-02-23T14:34:00;13.50;65.90
78297;DHT22;67555;47.660;19.622;2024-02-23T14:36:26;13.50;66.10
78297;DHT22;67555;47.660;19.622;2024-02-23T14:38:52;13.50;66.10
78297;DHT22;67555;47.660;19.622;2024-02-23T14:41:18;13.50;66.10
78297;DHT22;67555;47.660;19.622;2024-02-23T14:43:44;13.50;66.10
78297;DHT22;67555;47.660;19.622;2024-02-23T14:46:09;13.50;66.20
78297;DHT22;67555;47.660;19.622;2024-02-23T14:48:35;13.40;66.40
78297;DHT22;67555;47.660;19.622;2024-02-23T14:51:01;13.30;66.60
78297;DHT22;67555;47.660;19.622;2024-02-23T14:53:29;13.30;66.80
78297;DHT22;67555;47.660;19.622;2024-02-23T14:55:55;13.30;66.90
78297;DHT22;67555;47.660;19.622;2024-02-23T14:58:20;13.30;67.00
78297;DHT22;67555;47.660;19.622;2024-02-23T15:00:46;13.30;67.10
78297;DHT22;67555;47.660;19.622;2024-02-23T15:03:12;13.30;67.20
78297;DHT22;67555;47.660;19.622;2024-02-23T15:05:38;13.30;67.20
78297;DHT22;67555;47.660;19.622;2024-02-23T15:08:04;13.20;67.40
78297;DHT22;67555;47.660;19.622;2024-02-23T15:10:30;13.20;67.50